Terminal Aerodrome Forecast
Issued by NWS Paducah, KY

Home | Current Version | Previous Version | Text Only | Print | Product List | Glossary Off
Versions: 1 2 3 4 5 6 7 8 9 10 11 12 13 14 15 16 17 18 19

000
FTUS43 KPAH 231700 RRA
TAFEVV
TAF
KEVV 231740Z 2318/2418 VRB04KT P6SM SCT050 BKN250
     FM232100 32008KT P6SM VCSH SCT025 BKN040
     FM240000 36007KT P6SM BKN035
     FM241500 03008KT P6SM SCT040=

USA.gov is the U.S. government's official web portal to all federal, state and local government web resources and services.